createdAt,value
2023-01-19T00:02:47.416Z,4.55
2023-01-19T00:05:50.089Z,4.53
2023-01-19T00:08:52.556Z,4.45
2023-01-19T00:11:55.153Z,4.42
2023-01-19T00:14:57.602Z,4.40
2023-01-19T00:18:00.243Z,4.33
2023-01-19T00:21:02.581Z,4.31
2023-01-19T00:24:05.517Z,4.26
2023-01-19T00:27:07.840Z,4.33
2023-01-19T00:30:10.896Z,4.34
2023-01-19T00:33:16.210Z,4.27
2023-01-19T00:36:19.300Z,4.31
2023-01-19T00:39:21.600Z,4.30
2023-01-19T00:42:44.546Z,4.29
2023-01-19T00:45:46.887Z,4.25
2023-01-19T00:48:49.581Z,4.14
2023-01-19T00:51:51.919Z,4.18
2023-01-19T00:54:54.585Z,4.17
2023-01-19T00:57:57.318Z,4.17
2023-01-19T01:01:03.731Z,4.10
2023-01-19T01:04:06.520Z,4.08
2023-01-19T01:07:09.337Z,3.95
2023-01-19T01:10:13.481Z,3.92
2023-01-19T01:13:23.704Z,3.93
2023-01-19T01:16:28.518Z,3.90
2023-01-19T01:19:31.202Z,3.87
2023-01-19T01:22:33.539Z,3.85
2023-01-19T01:25:37.884Z,3.77
2023-01-19T01:28:40.258Z,3.78
2023-01-19T01:31:43.026Z,3.77
2023-01-19T01:34:45.409Z,3.78
2023-01-19T01:37:48.094Z,3.75
2023-01-19T01:40:50.560Z,3.75
2023-01-19T01:43:56.591Z,3.73
2023-01-19T01:46:59.294Z,3.70
2023-01-19T01:50:09.170Z,3.69
2023-01-19T01:53:13.787Z,3.66
2023-01-19T01:56:20.659Z,3.64
2023-01-19T01:59:29.428Z,3.61
2023-01-19T02:02:51.775Z,3.55
2023-01-19T02:05:57.599Z,3.56
2023-01-19T02:09:24.693Z,3.56
2023-01-19T02:12:47.267Z,3.56
2023-01-19T02:15:54.112Z,3.53
2023-01-19T02:18:57.270Z,3.46
2023-01-19T02:22:26.012Z,3.43
2023-01-19T02:25:28.656Z,3.43
2023-01-19T02:28:31.440Z,3.46
2023-01-19T02:31:35.818Z,3.45
2023-01-19T02:34:38.175Z,3.42
2023-01-19T02:37:42.353Z,3.46
2023-01-19T02:40:45.501Z,3.43
2023-01-19T02:43:49.164Z,3.40
2023-01-19T02:46:53.401Z,3.37
2023-01-19T02:49:57.245Z,3.33
2023-01-19T02:53:03.595Z,3.32
2023-01-19T02:56:06.370Z,3.31
2023-01-19T02:59:08.924Z,3.28
2023-01-19T03:02:16.527Z,3.27
2023-01-19T03:05:37.846Z,3.25
2023-01-19T03:08:55.899Z,3.28
2023-01-19T03:12:05.338Z,3.25
2023-01-19T03:15:14.293Z,3.24
2023-01-19T03:18:21.161Z,3.23
2023-01-19T03:21:26.309Z,3.16
2023-01-19T03:24:30.851Z,3.19
2023-01-19T03:27:40.719Z,3.22
2023-01-19T03:30:46.617Z,3.18
2023-01-19T03:33:51.617Z,3.19
2023-01-19T03:36:55.595Z,3.16
2023-01-19T03:39:58.283Z,3.10
2023-01-19T03:43:01.707Z,3.15
2023-01-19T03:46:05.981Z,3.09
2023-01-19T03:49:09.286Z,3.03
2023-01-19T03:52:12.953Z,2.99
2023-01-19T03:55:15.347Z,2.94
2023-01-19T03:58:18.013Z,2.98
2023-01-19T04:01:23.335Z,2.97
2023-01-19T04:04:26.261Z,2.94
2023-01-19T04:07:28.555Z,2.92
2023-01-19T04:10:31.947Z,2.86
2023-01-19T04:13:34.752Z,2.81
2023-01-19T04:16:37.376Z,2.76
2023-01-19T04:19:39.734Z,2.78
2023-01-19T04:22:42.608Z,2.74
2023-01-19T04:25:44.989Z,2.65
2023-01-19T04:28:47.692Z,2.69
2023-01-19T04:31:50.054Z,2.73
2023-01-19T04:34:52.710Z,2.69
2023-01-19T04:37:55.154Z,2.74
2023-01-19T04:40:57.806Z,2.73
2023-01-19T04:44:00.541Z,2.65
2023-01-19T04:47:03.492Z,2.60
2023-01-19T04:50:07.007Z,2.58
2023-01-19T04:53:09.643Z,2.51
2023-01-19T04:56:12.443Z,2.53
2023-01-19T04:59:15.499Z,2.49
2023-01-19T05:02:17.808Z,2.45
2023-01-19T05:05:20.685Z,2.45
2023-01-19T05:08:23.105Z,2.49
2023-01-19T05:11:26.142Z,2.50
2023-01-19T05:14:28.717Z,2.50
2023-01-19T05:17:31.427Z,2.51
2023-01-19T05:20:33.892Z,2.62
2023-01-19T05:23:36.525Z,2.66
2023-01-19T05:26:39.113Z,2.68
2023-01-19T05:29:41.904Z,2.73
2023-01-19T05:32:44.313Z,2.76
2023-01-19T05:35:47.150Z,2.76
2023-01-19T05:38:49.978Z,2.88
2023-01-19T05:41:52.734Z,2.91
2023-01-19T05:44:55.203Z,2.93
2023-01-19T05:47:57.773Z,2.87
2023-01-19T05:51:00.297Z,2.92
2023-01-19T05:54:02.904Z,2.92
2023-01-19T05:57:05.197Z,2.91
2023-01-19T06:00:08.308Z,2.95
2023-01-19T06:03:11.944Z,2.91
2023-01-19T06:06:15.432Z,2.94
2023-01-19T06:09:18.849Z,2.89
2023-01-19T06:12:21.470Z,2.89
2023-01-19T06:15:23.799Z,2.89
2023-01-19T06:18:26.612Z,2.89
2023-01-19T06:21:29.522Z,2.87
2023-01-19T06:24:32.956Z,2.86
2023-01-19T06:27:35.256Z,2.79
2023-01-19T06:30:37.929Z,2.81
2023-01-19T06:33:40.378Z,2.78
2023-01-19T06:36:43.012Z,2.80
2023-01-19T06:39:45.543Z,2.84
2023-01-19T06:42:48.472Z,2.90
2023-01-19T06:45:51.209Z,2.92
2023-01-19T06:48:54.772Z,2.87
2023-01-19T06:51:57.526Z,2.99
2023-01-19T06:55:00.101Z,3.04
2023-01-19T06:58:05.243Z,3.07
2023-01-19T07:01:07.850Z,3.12
2023-01-19T07:04:14.037Z,3.12
2023-01-19T07:07:16.843Z,3.18
2023-01-19T07:10:19.300Z,3.21
2023-01-19T07:13:22.008Z,3.22
2023-01-19T07:16:25.046Z,3.23
2023-01-19T07:19:27.927Z,3.26
2023-01-19T07:22:30.222Z,3.30
2023-01-19T07:25:32.876Z,3.39
2023-01-19T07:28:36.968Z,3.48
2023-01-19T07:31:39.732Z,3.49
2023-01-19T07:34:42.279Z,3.56
2023-01-19T07:37:44.942Z,3.65
2023-01-19T07:40:47.329Z,3.69
2023-01-19T07:43:51.373Z,3.73
2023-01-19T07:46:53.684Z,3.64
2023-01-19T07:49:56.822Z,3.66
2023-01-19T07:53:04.738Z,3.77
2023-01-19T07:56:10.354Z,3.80
2023-01-19T07:59:12.718Z,3.76
2023-01-19T08:02:17.143Z,3.78
2023-01-19T08:05:20.674Z,3.82
2023-01-19T08:08:22.967Z,3.81
2023-01-19T08:11:25.520Z,3.81
2023-01-19T08:14:27.937Z,3.84
2023-01-19T08:17:30.540Z,3.82
2023-01-19T08:20:33.046Z,3.83
2023-01-19T08:23:35.653Z,3.88
2023-01-19T08:26:38.964Z,3.93
2023-01-19T08:29:41.595Z,3.83
2023-01-19T08:32:43.988Z,3.94
2023-01-19T08:35:50.667Z,3.94
2023-01-19T08:38:52.960Z,3.92
2023-01-19T08:41:55.763Z,3.92
2023-01-19T08:44:58.709Z,3.93
2023-01-19T08:48:01.452Z,3.93
2023-01-19T08:51:03.932Z,3.88
2023-01-19T08:54:06.671Z,3.95
2023-01-19T08:57:09.121Z,3.92
2023-01-19T09:00:12.136Z,3.99
2023-01-19T09:03:14.754Z,3.96
2023-01-19T09:06:18.483Z,3.82
2023-01-19T09:09:20.788Z,3.79
2023-01-19T09:12:23.575Z,3.74
2023-01-19T09:15:26.371Z,3.79
2023-01-19T09:18:29.017Z,3.70
2023-01-19T09:21:31.682Z,3.72
2023-01-19T09:24:35.076Z,3.79
2023-01-19T09:27:37.359Z,3.77
2023-01-19T09:30:41.492Z,3.79
2023-01-19T09:33:43.993Z,3.80
2023-01-19T09:36:46.821Z,3.82
2023-01-19T09:39:49.156Z,3.83
2023-01-19T09:42:56.283Z,3.86
2023-01-19T09:45:59.526Z,3.88
2023-01-19T09:49:05.148Z,3.94
2023-01-19T09:52:12.498Z,3.90
2023-01-19T09:55:20.461Z,3.89
2023-01-19T09:58:23.796Z,3.87
2023-01-19T10:01:26.480Z,3.81
2023-01-19T10:04:29.412Z,3.68
2023-01-19T10:07:31.803Z,3.67
2023-01-19T10:10:35.769Z,3.55
2023-01-19T10:13:48.709Z,3.41
2023-01-19T10:16:56.238Z,3.36
2023-01-19T10:20:01.944Z,3.36
2023-01-19T10:23:10.612Z,3.29
2023-01-19T10:26:17.208Z,3.23
2023-01-19T10:29:26.134Z,3.16
2023-01-19T10:32:33.863Z,3.13
2023-01-19T10:35:36.553Z,3.05
2023-01-19T10:38:39.003Z,3.06
2023-01-19T10:41:43.225Z,3.01
2023-01-19T10:44:45.912Z,3.05
2023-01-19T10:47:48.996Z,3.03
2023-01-19T10:51:02.294Z,2.97
2023-01-19T10:54:05.326Z,2.99
2023-01-19T10:57:09.695Z,3.00
2023-01-19T11:00:31.319Z,2.94
2023-01-19T11:03:33.633Z,2.94
2023-01-19T11:06:36.505Z,2.88
2023-01-19T11:09:38.885Z,2.90
2023-01-19T11:12:42.780Z,2.87
2023-01-19T11:15:57.523Z,2.91
2023-01-19T11:19:02.078Z,2.91
2023-01-19T11:22:22.854Z,2.88
2023-01-19T11:25:29.383Z,2.91
2023-01-19T11:28:33.269Z,2.87
2023-01-19T11:31:36.410Z,2.78
2023-01-19T11:34:39.237Z,2.66
2023-01-19T11:37:43.215Z,2.72
2023-01-19T11:40:56.202Z,2.78
2023-01-19T11:44:02.871Z,2.71
2023-01-19T11:47:06.684Z,2.74
2023-01-19T11:50:13.720Z,2.78
2023-01-19T11:53:24.955Z,2.74
2023-01-19T11:56:29.297Z,2.73
2023-01-19T11:59:31.745Z,2.87
2023-01-19T12:02:43.314Z,2.81
2023-01-19T12:05:48.365Z,2.88
2023-01-19T12:08:55.994Z,2.96
2023-01-19T12:12:04.122Z,3.06
2023-01-19T12:15:19.941Z,3.01
2023-01-19T12:18:24.690Z,2.94
2023-01-19T12:21:27.070Z,2.83
2023-01-19T12:24:35.041Z,2.89
2023-01-19T12:27:37.535Z,3.01
2023-01-19T12:30:40.388Z,3.08
2023-01-19T12:33:43.272Z,3.08
2023-01-19T12:36:46.094Z,3.08
2023-01-19T12:39:48.937Z,3.15
2023-01-19T12:43:03.256Z,3.08
2023-01-19T12:46:18.664Z,2.98
2023-01-19T12:49:24.378Z,3.01
2023-01-19T12:52:30.893Z,2.97
2023-01-19T12:55:37.872Z,3.00
2023-01-19T12:58:47.047Z,3.02
2023-01-19T13:02:28.247Z,2.97
2023-01-19T13:05:48.125Z,2.94
2023-01-19T13:08:58.577Z,2.99
2023-01-19T13:12:30.328Z,3.03
2023-01-19T13:15:36.348Z,3.08
2023-01-19T13:18:40.971Z,3.27
2023-01-19T13:21:45.211Z,3.32
2023-01-19T13:25:07.704Z,3.36
2023-01-19T13:28:11.942Z,3.32
2023-01-19T13:31:15.050Z,3.40
2023-01-19T13:34:23.130Z,3.32
2023-01-19T13:37:36.988Z,3.31
2023-01-19T13:40:40.097Z,3.21
2023-01-19T13:43:43.047Z,3.16
2023-01-19T13:46:46.813Z,3.20
2023-01-19T13:49:51.148Z,3.09
2023-01-19T13:52:56.741Z,3.13
2023-01-19T13:56:25.698Z,3.22
2023-01-19T13:59:28.301Z,3.16
2023-01-19T14:02:31.003Z,3.15
2023-01-19T14:05:41.670Z,3.08
2023-01-19T14:08:44.044Z,3.01
2023-01-19T14:11:48.519Z,2.86
2023-01-19T14:14:50.914Z,2.86
2023-01-19T14:18:12.169Z,2.78
2023-01-19T14:21:15.028Z,2.78
2023-01-19T14:24:21.383Z,2.72
2023-01-19T14:27:24.426Z,2.65
2023-01-19T14:30:27.905Z,2.68
2023-01-19T14:33:40.271Z,2.70
2023-01-19T14:36:42.917Z,2.59
2023-01-19T14:39:47.168Z,2.54
2023-01-19T14:42:54.909Z,2.49
2023-01-19T14:45:57.901Z,2.49
2023-01-19T14:49:02.844Z,2.45
2023-01-19T14:52:07.511Z,2.43
2023-01-19T14:55:19.339Z,2.45
2023-01-19T14:58:23.891Z,2.44
2023-01-19T15:01:31.033Z,2.39
2023-01-19T15:04:33.576Z,2.25
2023-01-19T15:07:37.350Z,2.23
2023-01-19T15:10:39.877Z,2.22
2023-01-19T15:13:44.197Z,2.24
2023-01-19T15:16:46.960Z,2.29
2023-01-19T15:19:49.656Z,2.30
2023-01-19T15:22:51.991Z,2.35
2023-01-19T15:25:59.208Z,2.36
2023-01-19T15:29:01.618Z,2.34
2023-01-19T15:32:04.228Z,2.36
2023-01-19T15:35:12.780Z,2.38
2023-01-19T15:38:15.538Z,2.36
2023-01-19T15:41:25.826Z,2.38
2023-01-19T15:44:29.191Z,2.34
2023-01-19T15:47:31.490Z,2.35
2023-01-19T15:50:36.225Z,2.36
2023-01-19T15:53:39.845Z,2.30
2023-01-19T15:56:42.768Z,2.27
2023-01-19T15:59:45.704Z,2.26
2023-01-19T16:02:50.242Z,2.28
2023-01-19T16:05:52.935Z,2.28
2023-01-19T16:08:59.800Z,2.27
2023-01-19T16:12:02.474Z,2.33
2023-01-19T16:15:05.036Z,2.35
2023-01-19T16:18:07.923Z,2.32
2023-01-19T16:21:10.501Z,2.31
2023-01-19T16:24:13.409Z,2.30
2023-01-19T16:27:15.757Z,2.35
2023-01-19T16:30:19.443Z,2.34
2023-01-19T16:33:22.119Z,2.37
2023-01-19T16:36:26.491Z,2.35
2023-01-19T16:39:28.841Z,2.41
2023-01-19T16:42:31.620Z,2.36
2023-01-19T16:45:34.197Z,2.31
2023-01-19T16:48:36.812Z,2.34
2023-01-19T16:51:39.663Z,2.29
2023-01-19T16:54:43.066Z,2.27
2023-01-19T16:57:45.451Z,2.33
2023-01-19T17:00:48.389Z,2.30
2023-01-19T17:03:50.755Z,2.28
2023-01-19T17:06:53.942Z,2.28
2023-01-19T17:09:56.392Z,2.32
2023-01-19T17:12:59.931Z,2.26
2023-01-19T17:16:03.548Z,2.27
2023-01-19T17:19:07.512Z,2.25
2023-01-19T17:22:11.865Z,2.19
2023-01-19T17:25:14.547Z,2.23
2023-01-19T17:28:16.986Z,2.22
2023-01-19T17:31:20.880Z,2.21
2023-01-19T17:34:23.387Z,2.21
2023-01-19T17:37:26.059Z,2.23
2023-01-19T17:40:29.780Z,2.25
2023-01-19T17:43:32.625Z,2.28
2023-01-19T17:46:36.612Z,2.25
2023-01-19T17:49:39.740Z,2.27
2023-01-19T17:52:42.216Z,2.30
2023-01-19T17:55:45.004Z,2.24
2023-01-19T17:58:48.217Z,2.23
2023-01-19T18:01:51.076Z,2.25
2023-01-19T18:04:54.072Z,2.27
2023-01-19T18:07:56.435Z,2.25
2023-01-19T18:11:00.652Z,2.26
2023-01-19T18:14:03.472Z,2.24
2023-01-19T18:17:06.325Z,2.15
2023-01-19T18:20:09.338Z,2.21
2023-01-19T18:23:12.261Z,2.20
2023-01-19T18:26:20.194Z,2.12
2023-01-19T18:29:23.109Z,2.10
2023-01-19T18:32:27.192Z,2.10
2023-01-19T18:35:30.207Z,2.11
2023-01-19T18:38:33.461Z,2.15
2023-01-19T18:41:42.241Z,2.13
2023-01-19T18:44:44.548Z,2.11
2023-01-19T18:47:47.526Z,2.08
2023-01-19T18:50:50.392Z,2.01
2023-01-19T18:53:53.404Z,2.00
2023-01-19T18:56:55.909Z,1.96
2023-01-19T18:59:58.651Z,1.88
2023-01-19T19:03:01.361Z,1.92
2023-01-19T19:06:05.532Z,1.90
2023-01-19T19:09:09.266Z,1.86
2023-01-19T19:12:12.311Z,1.89
2023-01-19T19:15:15.102Z,1.92
2023-01-19T19:18:18.201Z,1.93
2023-01-19T19:21:21.537Z,1.86
2023-01-19T19:24:24.520Z,1.87
2023-01-19T19:27:27.374Z,1.87
2023-01-19T19:30:30.840Z,1.90
2023-01-19T19:33:37.073Z,1.92
2023-01-19T19:36:40.383Z,1.80
2023-01-19T19:39:42.866Z,1.74
2023-01-19T19:42:45.735Z,1.69
2023-01-19T19:46:01.476Z,1.69
2023-01-19T19:49:04.581Z,1.67
2023-01-19T19:52:07.348Z,1.72
2023-01-19T19:55:10.879Z,1.72
2023-01-19T19:58:13.919Z,1.72
2023-01-19T20:01:20.998Z,1.65
2023-01-19T20:04:25.363Z,1.64
2023-01-19T20:07:28.223Z,1.61
2023-01-19T20:10:32.868Z,1.64
2023-01-19T20:13:36.900Z,1.62
2023-01-19T20:16:40.048Z,1.61
2023-01-19T20:19:43.740Z,1.59
2023-01-19T20:22:46.741Z,1.56
2023-01-19T20:25:49.422Z,1.60
2023-01-19T20:28:53.385Z,1.52
2023-01-19T20:31:56.654Z,1.52
2023-01-19T20:34:59.779Z,1.43
2023-01-19T20:38:02.308Z,1.46
2023-01-19T20:41:05.413Z,1.41
2023-01-19T20:44:07.995Z,1.42
2023-01-19T20:47:10.919Z,1.41
2023-01-19T20:50:13.335Z,1.42
2023-01-19T20:53:16.267Z,1.41
2023-01-19T20:56:18.883Z,1.42
2023-01-19T20:59:22.276Z,1.45
2023-01-19T21:02:27.824Z,1.46
2023-01-19T21:05:31.432Z,1.43
2023-01-19T21:08:34.411Z,1.43
2023-01-19T21:11:38.830Z,1.36
2023-01-19T21:14:42.418Z,1.37
2023-01-19T21:17:45.273Z,1.38
2023-01-19T21:20:48.861Z,1.34
2023-01-19T21:23:51.715Z,1.32
2023-01-19T21:26:54.479Z,1.34
2023-01-19T21:29:58.653Z,1.37
2023-01-19T21:33:02.294Z,1.35
2023-01-19T21:36:04.988Z,1.36
2023-01-19T21:39:08.211Z,1.33
2023-01-19T21:42:10.914Z,1.35
2023-01-19T21:45:13.396Z,1.37
2023-01-19T21:48:16.873Z,1.38
2023-01-19T21:51:19.308Z,1.37
2023-01-19T21:54:21.984Z,1.43
2023-01-19T21:57:24.309Z,1.41
2023-01-19T22:00:29.468Z,1.41
2023-01-19T22:03:32.290Z,1.42
2023-01-19T22:06:34.682Z,1.51
2023-01-19T22:09:37.314Z,1.60
2023-01-19T22:12:40.431Z,1.61
2023-01-19T22:15:43.043Z,1.57
2023-01-19T22:18:49.066Z,1.51
2023-01-19T22:21:51.765Z,1.46
2023-01-19T22:24:54.150Z,1.32
2023-01-19T22:27:58.666Z,1.33
2023-01-19T22:31:05.289Z,1.33
2023-01-19T22:34:10.281Z,1.33
2023-01-19T22:37:12.681Z,1.36
2023-01-19T22:40:15.542Z,1.36
2023-01-19T22:43:17.955Z,1.42
2023-01-19T22:46:22.099Z,1.35
2023-01-19T22:49:24.499Z,1.28
2023-01-19T22:52:27.397Z,1.19
2023-01-19T22:55:29.896Z,1.25
2023-01-19T22:58:32.601Z,1.31
2023-01-19T23:01:40.247Z,1.36
2023-01-19T23:04:43.330Z,1.29
2023-01-19T23:07:45.880Z,1.31
2023-01-19T23:10:48.517Z,1.27
2023-01-19T23:13:51.056Z,1.34
2023-01-19T23:16:53.747Z,1.29
2023-01-19T23:19:56.118Z,1.25
2023-01-19T23:22:58.845Z,1.30
2023-01-19T23:26:05.398Z,1.27
2023-01-19T23:29:11.114Z,1.24
2023-01-19T23:32:13.853Z,1.25
2023-01-19T23:35:16.574Z,1.34
2023-01-19T23:38:20.120Z,1.33
2023-01-19T23:41:25.073Z,1.29
2023-01-19T23:44:27.547Z,1.28
2023-01-19T23:47:30.238Z,1.20
2023-01-19T23:50:32.637Z,1.12
2023-01-19T23:53:36.083Z,1.03
2023-01-19T23:56:38.907Z,1.02
2023-01-19T23:59:41.544Z,1.06
